createdAt,value
2022-12-18T00:00:01.747Z,7.80
2022-12-18T00:02:29.764Z,10.90
2022-12-18T00:04:58.270Z,12.00
2022-12-18T00:07:26.068Z,2.70
2022-12-18T00:09:53.967Z,10.70
2022-12-18T00:12:21.820Z,3.80
2022-12-18T00:14:49.617Z,12.70
2022-12-18T00:17:17.469Z,5.40
2022-12-18T00:19:45.328Z,5.40
2022-12-18T00:22:13.318Z,7.80
2022-12-18T00:24:41.300Z,7.00
2022-12-18T00:27:09.473Z,7.90
2022-12-18T00:29:37.301Z,11.10
2022-12-18T00:32:05.310Z,6.50
2022-12-18T00:34:33.133Z,9.50
2022-12-18T00:37:00.915Z,6.60
2022-12-18T00:39:28.763Z,15.80
2022-12-18T00:42:15.266Z,5.90
2022-12-18T00:44:43.081Z,10.80
2022-12-18T00:47:10.837Z,8.70
2022-12-18T00:49:38.586Z,9.00
2022-12-18T00:52:06.521Z,3.30
2022-12-18T00:54:34.328Z,7.50
2022-12-18T00:57:02.198Z,8.70
2022-12-18T00:59:31.448Z,7.70
2022-12-18T01:01:59.398Z,5.40
2022-12-18T01:04:27.319Z,9.40
2022-12-18T01:06:55.353Z,8.10
2022-12-18T01:09:23.187Z,3.40
2022-12-18T01:11:52.955Z,9.60
2022-12-18T01:14:20.812Z,3.80
2022-12-18T01:16:48.700Z,8.80
2022-12-18T01:19:17.136Z,3.90
2022-12-18T01:21:44.959Z,9.80
2022-12-18T01:24:12.993Z,5.40
2022-12-18T01:26:40.837Z,4.30
2022-12-18T01:29:08.805Z,16.20
2022-12-18T01:31:36.834Z,15.00
2022-12-18T01:34:05.545Z,10.90
2022-12-18T01:36:35.843Z,10.30
2022-12-18T01:39:14.091Z,10.10
2022-12-18T01:42:02.132Z,7.80
2022-12-18T01:45:05.236Z,10.10
2022-12-18T01:47:57.559Z,10.10
2022-12-18T01:50:32.796Z,6.50
2022-12-18T01:53:12.190Z,8.60
2022-12-18T01:55:46.144Z,12.30
2022-12-18T01:58:14.107Z,3.90
2022-12-18T02:00:42.875Z,7.70
2022-12-18T02:03:10.917Z,8.10
2022-12-18T02:06:18.539Z,4.40
2022-12-18T02:09:29.945Z,4.80
2022-12-18T02:12:11.677Z,5.70
2022-12-18T02:14:46.919Z,7.50
2022-12-18T02:17:21.575Z,4.60
2022-12-18T02:20:09.456Z,6.10
2022-12-18T02:23:05.048Z,6.50
2022-12-18T02:26:03.941Z,7.50
2022-12-18T02:28:36.243Z,1.10
2022-12-18T02:31:07.928Z,1.90
2022-12-18T02:33:36.195Z,3.80
2022-12-18T02:36:04.823Z,4.10
2022-12-18T02:38:33.506Z,5.80
2022-12-18T02:41:06.596Z,5.30
2022-12-18T02:43:34.460Z,8.40
2022-12-18T02:46:27.467Z,7.60
2022-12-18T02:49:15.590Z,5.70
2022-12-18T02:52:25.000Z,9.00
2022-12-18T02:55:49.266Z,6.50
2022-12-18T03:01:38.094Z,3.20
2022-12-18T03:07:51.348Z,4.50
2022-12-18T03:10:26.643Z,2.90
2022-12-18T03:13:09.997Z,4.00
2022-12-18T03:15:43.574Z,3.00
2022-12-18T03:18:15.737Z,4.10
2022-12-18T03:20:45.075Z,4.50
2022-12-18T03:23:18.843Z,3.00
2022-12-18T03:25:48.804Z,4.70
2022-12-18T03:28:21.395Z,5.00
2022-12-18T03:30:54.992Z,2.30
2022-12-18T03:33:28.530Z,8.40
2022-12-18T03:35:56.802Z,4.50
2022-12-18T03:38:24.876Z,4.40
2022-12-18T03:41:04.417Z,1.70
2022-12-18T03:43:55.024Z,2.70
2022-12-18T03:46:37.113Z,4.70
2022-12-18T03:49:25.085Z,2.80
2022-12-18T03:52:14.213Z,5.70
2022-12-18T03:54:42.415Z,4.70
2022-12-18T03:57:22.950Z,5.20
2022-12-18T03:59:57.514Z,7.70
2022-12-18T04:02:29.952Z,3.50
2022-12-18T04:05:01.799Z,5.50
2022-12-18T04:07:29.774Z,5.40
2022-12-18T04:09:59.785Z,2.80
2022-12-18T04:12:29.165Z,2.30
2022-12-18T04:14:57.365Z,1.90
2022-12-18T04:17:25.161Z,1.50
2022-12-18T04:19:53.831Z,1.80
2022-12-18T04:22:21.674Z,5.40
2022-12-18T04:24:52.435Z,3.70
2022-12-18T04:27:27.961Z,1.80
2022-12-18T04:29:56.292Z,5.30
2022-12-18T04:32:24.194Z,2.80
2022-12-18T04:34:52.901Z,3.10
2022-12-18T04:37:21.066Z,3.10
2022-12-18T04:39:50.658Z,4.30
2022-12-18T04:42:24.886Z,4.60
2022-12-18T04:44:52.668Z,3.80
2022-12-18T04:47:20.448Z,5.30
2022-12-18T04:49:48.264Z,5.40
2022-12-18T04:52:16.232Z,10.90
2022-12-18T04:54:44.192Z,6.40
2022-12-18T04:57:11.996Z,6.20
2022-12-18T04:59:39.832Z,2.30
2022-12-18T05:02:07.945Z,1.50
2022-12-18T05:04:35.828Z,4.30
2022-12-18T05:07:03.655Z,5.20
2022-12-18T05:09:31.432Z,4.10
2022-12-18T05:11:59.257Z,4.30
2022-12-18T05:14:28.676Z,6.80
2022-12-18T05:17:00.661Z,3.20
2022-12-18T05:19:28.861Z,6.50
2022-12-18T05:21:56.760Z,4.10
2022-12-18T05:24:24.626Z,4.50
2022-12-18T05:26:52.490Z,4.30
2022-12-18T05:29:20.320Z,5.40
2022-12-18T05:31:48.449Z,4.20
2022-12-18T05:34:16.518Z,3.90
2022-12-18T05:36:44.465Z,3.50
2022-12-18T05:39:12.506Z,3.20
2022-12-18T05:41:40.299Z,6.00
2022-12-18T05:44:09.498Z,4.20
2022-12-18T05:46:37.592Z,3.70
2022-12-18T05:49:05.471Z,2.40
2022-12-18T05:51:33.337Z,3.80
2022-12-18T05:54:01.118Z,1.90
2022-12-18T05:56:28.924Z,7.80
2022-12-18T05:58:57.097Z,4.40
2022-12-18T06:01:27.489Z,5.90
2022-12-18T06:03:56.238Z,4.30
2022-12-18T06:06:26.499Z,2.40
2022-12-18T06:08:54.701Z,6.70
2022-12-18T06:11:25.120Z,5.10
2022-12-18T06:13:58.776Z,2.50
2022-12-18T06:16:28.534Z,3.10
2022-12-18T06:19:04.081Z,5.00
2022-12-18T06:21:38.907Z,4.20
2022-12-18T06:24:07.496Z,2.20
2022-12-18T06:26:35.281Z,2.20
2022-12-18T06:29:03.070Z,4.80
2022-12-18T06:31:31.038Z,2.70
2022-12-18T06:33:59.163Z,3.10
2022-12-18T06:36:27.028Z,1.60
2022-12-18T06:38:54.888Z,8.10
2022-12-18T06:41:22.762Z,4.00
2022-12-18T06:43:50.844Z,5.60
2022-12-18T06:46:19.283Z,3.40
2022-12-18T06:48:51.037Z,2.10
2022-12-18T06:51:20.977Z,1.90
2022-12-18T06:53:48.810Z,1.20
2022-12-18T06:56:16.624Z,7.30
2022-12-18T06:58:44.844Z,2.70
2022-12-18T07:01:12.847Z,2.40
2022-12-18T07:03:41.753Z,6.50
2022-12-18T07:06:18.843Z,3.00
2022-12-18T07:08:47.608Z,3.80
2022-12-18T07:11:15.789Z,3.80
2022-12-18T07:13:43.934Z,1.60
2022-12-18T07:16:19.645Z,5.40
2022-12-18T07:18:51.065Z,4.90
2022-12-18T07:21:21.866Z,3.10
2022-12-18T07:23:49.755Z,4.50
2022-12-18T07:26:19.989Z,2.50
2022-12-18T07:28:48.253Z,3.50
2022-12-18T07:31:19.096Z,6.00
2022-12-18T07:33:47.150Z,1.20
2022-12-18T07:36:15.242Z,1.60
2022-12-18T07:38:43.034Z,3.30
2022-12-18T07:41:13.415Z,1.10
2022-12-18T07:43:42.612Z,2.30
2022-12-18T07:46:11.328Z,2.70
2022-12-18T07:48:42.514Z,5.20
2022-12-18T07:51:13.951Z,6.40
2022-12-18T07:53:42.687Z,2.50
2022-12-18T07:56:29.622Z,1.20
2022-12-18T07:59:00.408Z,4.00
2022-12-18T08:01:28.607Z,2.30
2022-12-18T08:03:56.659Z,3.70
2022-12-18T08:06:25.019Z,5.20
2022-12-18T08:08:54.557Z,2.60
2022-12-18T08:11:23.430Z,3.30
2022-12-18T08:13:51.400Z,2.40
2022-12-18T08:16:19.608Z,2.20
2022-12-18T08:18:48.689Z,2.40
2022-12-18T08:21:25.761Z,0.70
2022-12-18T08:23:54.891Z,3.10
2022-12-18T08:26:23.322Z,5.30
2022-12-18T08:28:51.709Z,0.70
2022-12-18T08:31:20.014Z,0.60
2022-12-18T08:33:51.058Z,1.30
2022-12-18T08:36:20.226Z,1.40
2022-12-18T08:38:48.383Z,3.40
2022-12-18T08:41:17.890Z,3.30
2022-12-18T08:44:04.693Z,3.20
2022-12-18T08:46:41.353Z,2.80
2022-12-18T08:49:11.006Z,4.20
2022-12-18T08:51:39.860Z,2.20
2022-12-18T08:54:08.653Z,2.50
2022-12-18T08:56:36.513Z,0.30
2022-12-18T08:59:05.532Z,5.20
2022-12-18T09:01:33.564Z,1.70
2022-12-18T09:04:02.163Z,2.70
2022-12-18T09:06:30.129Z,3.60
2022-12-18T09:08:58.303Z,3.50
2022-12-18T09:11:27.972Z,2.10
2022-12-18T09:13:56.805Z,2.50
2022-12-18T09:16:31.523Z,2.10
2022-12-18T09:19:00.971Z,3.50
2022-12-18T09:21:32.884Z,4.10
2022-12-18T09:24:04.542Z,4.50
2022-12-18T09:26:34.963Z,4.30
2022-12-18T09:29:03.958Z,7.30
2022-12-18T09:31:31.766Z,4.70
2022-12-18T09:33:59.686Z,2.20
2022-12-18T09:36:27.463Z,2.60
2022-12-18T09:38:55.931Z,4.20
2022-12-18T09:41:51.758Z,4.60
2022-12-18T09:44:38.882Z,3.20
2022-12-18T09:47:32.134Z,2.30
2022-12-18T09:50:26.104Z,4.60
2022-12-18T09:52:56.323Z,4.80
2022-12-18T09:55:37.515Z,1.20
2022-12-18T09:58:26.796Z,4.00
2022-12-18T10:00:55.505Z,3.90
2022-12-18T10:03:23.523Z,2.10
2022-12-18T10:06:08.397Z,1.40
2022-12-18T10:09:04.484Z,3.00
2022-12-18T10:11:50.303Z,1.30
2022-12-18T10:14:31.908Z,2.90
2022-12-18T10:17:35.315Z,4.80
2022-12-18T10:20:36.945Z,5.30
2022-12-18T10:23:15.047Z,1.70
2022-12-18T10:26:05.958Z,1.70
2022-12-18T10:28:37.166Z,5.10
2022-12-18T10:31:18.146Z,4.70
2022-12-18T10:33:46.245Z,6.70
2022-12-18T10:36:14.335Z,6.10
2022-12-18T10:38:42.888Z,1.30
2022-12-18T10:41:22.125Z,2.30
2022-12-18T10:44:10.793Z,3.30
2022-12-18T10:46:38.614Z,4.90
2022-12-18T10:49:06.408Z,2.40
2022-12-18T10:51:36.010Z,5.80
2022-12-18T10:54:15.496Z,3.00
2022-12-18T10:56:43.694Z,3.00
2022-12-18T10:59:17.328Z,8.30
2022-12-18T11:01:56.676Z,3.20
2022-12-18T11:04:30.564Z,4.00
2022-12-18T11:07:06.426Z,1.10
2022-12-18T11:09:36.541Z,5.10
2022-12-18T11:12:17.135Z,3.60
2022-12-18T11:14:49.580Z,4.60
2022-12-18T11:17:25.245Z,1.90
2022-12-18T11:19:58.512Z,4.30
2022-12-18T11:22:34.826Z,3.70
2022-12-18T11:25:35.432Z,2.50
2022-12-18T11:28:38.957Z,2.10
2022-12-18T11:31:24.351Z,3.60
2022-12-18T11:36:49.524Z,4.70
2022-12-18T11:39:46.762Z,4.60
2022-12-18T11:42:25.744Z,3.80
2022-12-18T11:45:03.999Z,3.70
2022-12-18T11:48:00.443Z,3.80
2022-12-18T11:50:58.626Z,3.60
2022-12-18T11:53:27.485Z,2.50
2022-12-18T11:56:32.051Z,3.50
2022-12-18T11:59:31.479Z,3.60
2022-12-18T12:02:34.253Z,4.10
2022-12-18T12:05:05.286Z,3.30
2022-12-18T12:08:12.343Z,2.20
2022-12-18T12:10:47.509Z,1.70
2022-12-18T12:13:55.933Z,0.50
2022-12-18T12:16:38.734Z,0.50
2022-12-18T12:19:31.654Z,7.70
2022-12-18T12:22:09.342Z,2.30
2022-12-18T12:24:56.637Z,1.60
2022-12-18T12:27:55.672Z,4.60
2022-12-18T12:31:07.362Z,1.70
2022-12-18T12:33:45.247Z,2.10
2022-12-18T12:36:38.287Z,3.70
2022-12-18T12:39:09.618Z,6.10
2022-12-18T12:41:57.196Z,1.40
2022-12-18T12:44:32.004Z,2.50
2022-12-18T12:47:04.501Z,2.20
2022-12-18T12:49:37.556Z,2.90
2022-12-18T12:52:14.043Z,4.20
2022-12-18T12:54:42.216Z,1.80
2022-12-18T12:57:39.062Z,4.00
2022-12-18T13:00:10.118Z,4.10
2022-12-18T13:02:49.049Z,5.60
2022-12-18T13:08:07.298Z,3.80
2022-12-18T13:10:36.723Z,2.80
2022-12-18T13:13:17.160Z,3.80
2022-12-18T13:16:08.332Z,8.30
2022-12-18T13:18:36.448Z,1.40
2022-12-18T13:21:21.088Z,4.20
2022-12-18T13:23:50.001Z,4.00
2022-12-18T13:26:19.900Z,2.50
2022-12-18T13:28:55.680Z,0.80
2022-12-18T13:31:42.192Z,2.20
2022-12-18T13:34:26.081Z,2.40
2022-12-18T13:36:56.464Z,2.30
2022-12-18T13:39:35.931Z,4.10
2022-12-18T13:44:43.090Z,2.90
2022-12-18T13:47:35.076Z,4.50
2022-12-18T13:50:11.023Z,2.80
2022-12-18T13:52:38.897Z,7.20
2022-12-18T13:55:15.290Z,4.30
2022-12-18T13:57:43.739Z,3.70
2022-12-18T14:00:29.668Z,3.90
2022-12-18T14:02:58.934Z,2.50
2022-12-18T14:05:33.376Z,2.20
2022-12-18T14:08:15.571Z,3.40
2022-12-18T14:10:49.510Z,2.30
2022-12-18T14:13:27.991Z,4.30
2022-12-18T14:15:55.873Z,2.50
2022-12-18T14:18:27.486Z,1.60
2022-12-18T14:21:00.902Z,0.50
2022-12-18T14:23:41.601Z,3.70
2022-12-18T14:26:30.432Z,2.50
2022-12-18T14:29:19.415Z,0.70
2022-12-18T14:31:47.847Z,4.90
2022-12-18T14:34:17.964Z,2.20
2022-12-18T14:36:56.367Z,0.40
2022-12-18T14:39:26.597Z,3.40
2022-12-18T14:41:55.246Z,0.90
2022-12-18T14:44:24.069Z,1.70
2022-12-18T14:46:52.191Z,2.20
2022-12-18T14:49:35.499Z,2.60
2022-12-18T14:52:27.913Z,2.80
2022-12-18T14:54:55.722Z,6.80
2022-12-18T14:57:26.406Z,4.60
2022-12-18T14:59:54.229Z,5.10
2022-12-18T15:02:27.949Z,3.00
2022-12-18T15:05:11.311Z,0.90
2022-12-18T15:07:53.154Z,6.40
2022-12-18T15:10:32.835Z,7.30
2022-12-18T15:13:01.642Z,2.20
2022-12-18T15:15:38.724Z,2.00
2022-12-18T15:18:18.058Z,3.60
2022-12-18T15:20:50.866Z,3.00
2022-12-18T15:23:31.397Z,8.40
2022-12-18T15:26:10.085Z,1.90
2022-12-18T15:28:56.193Z,3.40
2022-12-18T15:31:37.503Z,1.60
2022-12-18T15:34:08.823Z,5.40
2022-12-18T15:36:37.651Z,2.70
2022-12-18T15:39:06.677Z,3.90
2022-12-18T15:41:36.367Z,2.30
2022-12-18T15:44:18.403Z,11.20
2022-12-18T15:46:46.200Z,8.40
2022-12-18T15:49:13.998Z,4.30
2022-12-18T15:51:41.926Z,9.60
2022-12-18T15:54:14.109Z,3.60
2022-12-18T15:57:00.852Z,9.60
2022-12-18T15:59:28.728Z,5.50
2022-12-18T16:01:57.500Z,5.00
2022-12-18T16:04:26.358Z,8.20
2022-12-18T16:09:42.946Z,3.30
2022-12-18T16:12:23.771Z,5.50
2022-12-18T16:14:51.881Z,0.70
2022-12-18T16:17:19.736Z,4.30
2022-12-18T16:19:47.813Z,3.30
2022-12-18T16:22:22.130Z,11.30
2022-12-18T16:24:51.329Z,6.50
2022-12-18T16:27:19.412Z,1.90
2022-12-18T16:29:47.367Z,1.40
2022-12-18T16:32:17.489Z,4.50
2022-12-18T16:34:45.759Z,2.70
2022-12-18T16:37:14.850Z,4.30
2022-12-18T16:39:43.027Z,3.20
2022-12-18T16:42:20.378Z,6.10
2022-12-18T16:44:49.653Z,8.40
2022-12-18T16:47:18.193Z,5.40
2022-12-18T16:49:46.608Z,12.60
2022-12-18T16:52:14.756Z,1.20
2022-12-18T16:54:42.530Z,2.40
2022-12-18T16:57:13.245Z,1.60
2022-12-18T16:59:41.107Z,6.70
2022-12-18T17:02:15.851Z,6.10
2022-12-18T17:04:45.558Z,3.70
2022-12-18T17:07:13.683Z,4.30
2022-12-18T17:09:41.984Z,5.00
2022-12-18T17:12:10.055Z,3.50
2022-12-18T17:14:37.958Z,7.00
2022-12-18T17:17:22.688Z,1.10
2022-12-18T17:19:52.152Z,4.70
2022-12-18T17:22:22.000Z,3.30
2022-12-18T17:24:50.271Z,5.30
2022-12-18T17:27:18.143Z,4.60
2022-12-18T17:29:48.427Z,3.80
2022-12-18T17:32:17.994Z,2.30
2022-12-18T17:34:46.142Z,2.00
2022-12-18T17:37:14.310Z,1.20
2022-12-18T17:39:42.579Z,2.50
2022-12-18T17:42:14.929Z,5.30
2022-12-18T17:44:44.560Z,3.30
2022-12-18T17:47:13.655Z,3.80
2022-12-18T17:49:42.578Z,4.90
2022-12-18T17:52:10.565Z,5.20
2022-12-18T17:54:41.533Z,1.00
2022-12-18T17:57:09.623Z,0.90
2022-12-18T17:59:37.443Z,2.30
2022-12-18T18:02:05.704Z,1.10
2022-12-18T18:04:34.861Z,1.10
2022-12-18T18:07:03.265Z,0.50
2022-12-18T18:09:32.535Z,0.40
2022-12-18T18:12:18.948Z,2.20
2022-12-18T18:14:47.211Z,1.00
2022-12-18T18:17:15.688Z,2.50
2022-12-18T18:19:45.465Z,2.30
2022-12-18T18:22:18.179Z,0.40
2022-12-18T18:24:47.074Z,2.30
2022-12-18T18:27:15.285Z,3.60
2022-12-18T18:29:43.331Z,1.90
2022-12-18T18:32:11.336Z,2.10
2022-12-18T18:34:39.247Z,3.30
2022-12-18T18:37:07.317Z,3.40
2022-12-18T18:39:35.389Z,5.50
2022-12-18T18:42:03.358Z,4.70
2022-12-18T18:44:31.249Z,2.30
2022-12-18T18:46:59.596Z,2.20
2022-12-18T18:49:28.117Z,2.00
2022-12-18T18:51:57.280Z,4.80
2022-12-18T18:54:25.743Z,1.90
2022-12-18T18:57:19.348Z,3.70
2022-12-18T18:59:42.275Z,4.60
2022-12-18T19:02:14.361Z,3.40
2022-12-18T19:04:45.998Z,4.60
2022-12-18T19:07:29.374Z,4.80
2022-12-18T19:10:05.041Z,3.70
2022-12-18T19:12:53.521Z,2.10
2022-12-18T19:15:22.969Z,1.80
2022-12-18T19:17:51.094Z,4.00
2022-12-18T19:20:19.261Z,4.80
2022-12-18T19:22:52.221Z,3.40
2022-12-18T19:25:37.575Z,5.20
2022-12-18T19:28:15.849Z,5.30
2022-12-18T19:30:57.301Z,4.80
2022-12-18T19:33:42.250Z,0.90
2022-12-18T19:36:21.329Z,3.70
2022-12-18T19:38:49.896Z,2.60
2022-12-18T19:41:19.351Z,1.80
2022-12-18T19:43:47.731Z,4.90
2022-12-18T19:46:18.369Z,2.80
2022-12-18T19:48:46.991Z,5.20
2022-12-18T19:51:23.353Z,3.10
2022-12-18T19:53:56.628Z,2.10
2022-12-18T19:56:28.141Z,5.70
2022-12-18T19:58:56.019Z,9.00
2022-12-18T20:01:25.137Z,5.20
2022-12-18T20:03:55.509Z,4.30
2022-12-18T20:06:32.731Z,5.50
2022-12-18T20:09:06.265Z,3.40
2022-12-18T20:11:36.922Z,6.70
2022-12-18T20:14:13.783Z,9.10
2022-12-18T20:16:41.903Z,4.80
2022-12-18T20:19:11.428Z,3.60
2022-12-18T20:21:39.285Z,9.50
2022-12-18T20:24:08.901Z,6.00
2022-12-18T20:26:36.742Z,3.40
2022-12-18T20:29:04.648Z,3.10
2022-12-18T20:31:32.590Z,4.70
2022-12-18T20:34:03.552Z,8.10
2022-12-18T20:36:35.117Z,6.50
2022-12-18T20:39:06.595Z,3.00
2022-12-18T20:41:38.232Z,6.60
2022-12-18T20:44:21.793Z,3.70
2022-12-18T20:46:56.862Z,5.70
2022-12-18T20:49:26.331Z,6.80
2022-12-18T20:51:56.448Z,7.80
2022-12-18T20:54:26.320Z,18.30
2022-12-18T20:56:54.380Z,7.30
2022-12-18T20:59:23.422Z,3.70
2022-12-18T21:01:52.549Z,11.60
2022-12-18T21:04:20.739Z,7.20
2022-12-18T21:06:53.389Z,9.30
2022-12-18T21:09:25.884Z,7.80
2022-12-18T21:12:14.324Z,13.30
2022-12-18T21:14:43.069Z,7.20
2022-12-18T21:17:11.544Z,18.10
2022-12-18T21:19:40.189Z,11.50
2022-12-18T21:22:10.107Z,8.90
2022-12-18T21:24:38.174Z,6.30
2022-12-18T21:27:06.465Z,8.40
2022-12-18T21:29:35.083Z,9.00
2022-12-18T21:32:03.718Z,9.00
2022-12-18T21:34:32.605Z,12.70
2022-12-18T21:37:01.088Z,6.30
2022-12-18T21:39:30.077Z,10.30
2022-12-18T21:42:17.002Z,11.10
2022-12-18T21:44:45.260Z,15.40
2022-12-18T21:47:22.387Z,8.70
2022-12-18T21:49:54.100Z,6.30
2022-12-18T21:52:32.046Z,13.70
2022-12-18T21:55:08.605Z,6.20
2022-12-18T21:57:39.001Z,11.20
2022-12-18T22:00:10.582Z,13.00
2022-12-18T22:05:09.351Z,9.50
2022-12-18T22:07:37.322Z,10.10
2022-12-18T22:10:06.075Z,12.70
2022-12-18T22:12:44.477Z,10.30
2022-12-18T22:15:21.101Z,12.50
2022-12-18T22:17:51.323Z,15.40
2022-12-18T22:20:26.749Z,9.90
2022-12-18T22:22:54.818Z,10.90
2022-12-18T22:25:22.692Z,6.70
2022-12-18T22:28:09.440Z,7.10
2022-12-18T22:30:37.261Z,9.40
2022-12-18T22:33:05.057Z,10.70
2022-12-18T22:35:32.989Z,16.30
2022-12-18T22:38:00.956Z,7.40
2022-12-18T22:40:29.159Z,5.70
2022-12-18T22:42:57.075Z,8.40
2022-12-18T22:45:26.499Z,14.40
2022-12-18T22:47:54.671Z,13.50
2022-12-18T22:50:22.642Z,12.10
2022-12-18T22:52:50.436Z,10.10
2022-12-18T22:55:18.574Z,19.10
2022-12-18T22:57:48.852Z,16.00
2022-12-18T23:00:23.969Z,8.30
2022-12-18T23:02:59.714Z,14.10
2022-12-18T23:05:30.670Z,8.70
2022-12-18T23:07:59.179Z,12.20
2022-12-18T23:10:27.591Z,15.50
2022-12-18T23:12:55.587Z,10.90
2022-12-18T23:15:28.542Z,15.50
2022-12-18T23:17:59.776Z,15.70
2022-12-18T23:20:27.776Z,13.40
2022-12-18T23:22:55.647Z,17.40
2022-12-18T23:25:24.804Z,18.20
2022-12-18T23:27:52.804Z,21.10
2022-12-18T23:30:20.742Z,23.10
2022-12-18T23:32:48.612Z,13.40
2022-12-18T23:35:17.494Z,18.70
2022-12-18T23:38:02.125Z,16.80
2022-12-18T23:40:30.118Z,20.50
2022-12-18T23:42:59.531Z,19.40
2022-12-18T23:45:27.543Z,15.40
2022-12-18T23:47:55.387Z,12.20
2022-12-18T23:50:29.287Z,10.10
2022-12-18T23:53:04.788Z,12.30
2022-12-18T23:55:39.471Z,13.20
2022-12-18T23:58:18.322Z,22.80
